sensor_id;sensor_type;location;lat;lon;timestamp;pressure;altitude;pressure_sealevel;temperature;humidity
10587;BME280;5341;47.606;7.576;2023-03-16T00:01:30;99112.63;;;9.79;48.34
10587;BME280;5341;47.606;7.576;2023-03-16T00:03:58;99115.47;;;9.78;48.19
10587;BME280;5341;47.606;7.576;2023-03-16T00:06:27;99111.13;;;9.77;48.50
10587;BME280;5341;47.606;7.576;2023-03-16T00:08:54;99113.31;;;9.73;48.45
10587;BME280;5341;47.606;7.576;2023-03-16T00:11:23;99111.66;;;9.72;48.42
10587;BME280;5341;47.606;7.576;2023-03-16T00:13:51;99117.16;;;9.71;48.36
10587;BME280;5341;47.606;7.576;2023-03-16T00:16:20;99111.94;;;9.69;48.48
10587;BME280;5341;47.606;7.576;2023-03-16T00:18:47;99119.31;;;9.67;48.00
10587;BME280;5341;47.606;7.576;2023-03-16T00:21:16;99119.47;;;9.65;48.24
10587;BME280;5341;47.606;7.576;2023-03-16T00:23:44;99118.81;;;9.63;48.65
10587;BME280;5341;47.606;7.576;2023-03-16T00:26:12;99113.81;;;9.60;48.71
10587;BME280;5341;47.606;7.576;2023-03-16T00:28:41;99119.31;;;9.59;48.16
10587;BME280;5341;47.606;7.576;2023-03-16T00:31:09;99122.16;;;9.57;48.59
10587;BME280;5341;47.606;7.576;2023-03-16T00:33:38;99119.81;;;9.54;48.61
10587;BME280;5341;47.606;7.576;2023-03-16T00:36:08;99122.66;;;9.53;48.19
10587;BME280;5341;47.606;7.576;2023-03-16T00:38:38;99113.97;;;9.51;48.37
10587;BME280;5341;47.606;7.576;2023-03-16T00:41:12;99120.31;;;9.50;48.17
10587;BME280;5341;47.606;7.576;2023-03-16T00:43:41;99115.31;;;9.47;48.52
10587;BME280;5341;47.606;7.576;2023-03-16T00:46:10;99114.50;;;9.46;48.38
10587;BME280;5341;47.606;7.576;2023-03-16T00:48:40;99109.28;;;9.45;48.73
10587;BME280;5341;47.606;7.576;2023-03-16T00:51:10;99104.13;;;9.43;48.50
10587;BME280;5341;47.606;7.576;2023-03-16T00:53:41;99100.78;;;9.41;48.24
10587;BME280;5341;47.606;7.576;2023-03-16T00:56:11;99103.47;;;9.41;48.40
10587;BME280;5341;47.606;7.576;2023-03-16T00:58:40;99103.78;;;9.38;48.59
10587;BME280;5341;47.606;7.576;2023-03-16T01:01:11;99098.63;;;9.36;48.63
10587;BME280;5341;47.606;7.576;2023-03-16T01:03:40;99095.31;;;9.34;48.24
10587;BME280;5341;47.606;7.576;2023-03-16T01:06:09;99086.59;;;9.32;48.27
10587;BME280;5341;47.606;7.576;2023-03-16T01:08:37;99088.59;;;9.30;48.63
10587;BME280;5341;47.606;7.576;2023-03-16T01:11:08;99085.09;;;9.30;48.50
10587;BME280;5341;47.606;7.576;2023-03-16T01:13:38;99076.44;;;9.28;48.33
10587;BME280;5341;47.606;7.576;2023-03-16T01:16:07;99079.28;;;9.26;48.66
10587;BME280;5341;47.606;7.576;2023-03-16T01:18:34;99076.78;;;9.25;48.58
10587;BME280;5341;47.606;7.576;2023-03-16T01:21:03;99082.28;;;9.23;48.62
10587;BME280;5341;47.606;7.576;2023-03-16T01:23:33;99085.25;;;9.20;48.67
10587;BME280;5341;47.606;7.576;2023-03-16T01:26:00;99085.41;;;9.19;48.41
10587;BME280;5341;47.606;7.576;2023-03-16T01:28:30;99077.75;;;9.16;48.50
10587;BME280;5341;47.606;7.576;2023-03-16T01:31:01;99072.59;;;9.14;48.68
10587;BME280;5341;47.606;7.576;2023-03-16T01:33:30;99067.44;;;9.13;48.61
10587;BME280;5341;47.606;7.576;2023-03-16T01:36:00;99068.44;;;9.12;48.65
10587;BME280;5341;47.606;7.576;2023-03-16T01:38:33;99058.94;;;9.09;48.74
10587;BME280;5341;47.606;7.576;2023-03-16T01:41:01;99067.06;;;9.07;48.52
10587;BME280;5341;47.606;7.576;2023-03-16T01:43:30;99057.56;;;9.05;48.33
10587;BME280;5341;47.606;7.576;2023-03-16T01:46:16;99059.56;;;9.03;48.51
10587;BME280;5341;47.606;7.576;2023-03-16T01:48:49;99054.41;;;9.01;48.96
10587;BME280;5341;47.606;7.576;2023-03-16T01:51:23;99056.41;;;8.99;48.52
10587;BME280;5341;47.606;7.576;2023-03-16T01:53:55;99061.06;;;8.97;48.32
10587;BME280;5341;47.606;7.576;2023-03-16T01:56:25;99061.22;;;8.96;48.41
10587;BME280;5341;47.606;7.576;2023-03-16T01:59:01;99064.06;;;8.94;48.58
10587;BME280;5341;47.606;7.576;2023-03-16T02:01:40;99066.06;;;8.92;48.59
10587;BME280;5341;47.606;7.576;2023-03-16T02:04:25;99065.38;;;8.90;48.64
10587;BME280;5341;47.606;7.576;2023-03-16T02:07:02;99062.06;;;8.88;48.65
10587;BME280;5341;47.606;7.576;2023-03-16T02:09:32;99063.22;;;8.86;49.05
10587;BME280;5341;47.606;7.576;2023-03-16T02:12:01;99060.69;;;8.84;48.43
10587;BME280;5341;47.606;7.576;2023-03-16T02:14:31;99053.69;;;8.83;48.50
10587;BME280;5341;47.606;7.576;2023-03-16T02:17:01;99057.53;;;8.80;48.43
10587;BME280;5341;47.606;7.576;2023-03-16T02:19:35;99059.38;;;8.80;48.55
10587;BME280;5341;47.606;7.576;2023-03-16T02:22:20;99055.88;;;8.79;48.55
10587;BME280;5341;47.606;7.576;2023-03-16T02:24:50;99049.03;;;8.77;48.88
10587;BME280;5341;47.606;7.576;2023-03-16T02:27:23;99049.03;;;8.77;48.53
10587;BME280;5341;47.606;7.576;2023-03-16T02:29:58;99044.88;;;8.74;48.76
10587;BME280;5341;47.606;7.576;2023-03-16T02:32:32;99044.03;;;8.74;48.90
10587;BME280;5341;47.606;7.576;2023-03-16T02:35:02;99051.34;;;8.72;49.05
10587;BME280;5341;47.606;7.576;2023-03-16T02:37:30;99048.84;;;8.70;48.85
10587;BME280;5341;47.606;7.576;2023-03-16T02:39:59;99043.50;;;8.70;48.73
10587;BME280;5341;47.606;7.576;2023-03-16T02:42:28;99040.16;;;8.68;48.89
10587;BME280;5341;47.606;7.576;2023-03-16T02:45:00;99046.50;;;8.67;48.82
10587;BME280;5341;47.606;7.576;2023-03-16T02:47:36;99043.16;;;8.65;48.71
10587;BME280;5341;47.606;7.576;2023-03-16T02:50:05;99037.16;;;8.63;48.85
10587;BME280;5341;47.606;7.576;2023-03-16T02:52:34;99039.84;;;8.63;48.70
10587;BME280;5341;47.606;7.576;2023-03-16T02:55:02;99034.69;;;8.62;48.81
10587;BME280;5341;47.606;7.576;2023-03-16T02:57:30;99025.84;;;8.61;48.71
10587;BME280;5341;47.606;7.576;2023-03-16T03:00:05;99018.84;;;8.60;48.77
10587;BME280;5341;47.606;7.576;2023-03-16T03:02:37;99021.66;;;8.59;49.00
10587;BME280;5341;47.606;7.576;2023-03-16T03:05:05;99009.31;;;8.58;48.66
10587;BME280;5341;47.606;7.576;2023-03-16T03:07:32;99008.47;;;8.57;49.13
10587;BME280;5341;47.606;7.576;2023-03-16T03:10:04;99016.47;;;8.57;48.80
10587;BME280;5341;47.606;7.576;2023-03-16T03:12:32;99016.81;;;8.54;48.73
10587;BME280;5341;47.606;7.576;2023-03-16T03:15:05;99013.31;;;8.54;48.91
10587;BME280;5341;47.606;7.576;2023-03-16T03:17:40;99016.31;;;8.50;48.66
10587;BME280;5341;47.606;7.576;2023-03-16T03:20:09;99015.66;;;8.48;48.84
10587;BME280;5341;47.606;7.576;2023-03-16T03:22:42;99016.63;;;8.47;48.84
10587;BME280;5341;47.606;7.576;2023-03-16T03:25:11;99015.13;;;8.45;48.78
10587;BME280;5341;47.606;7.576;2023-03-16T03:27:38;99009.13;;;8.43;48.65
10587;BME280;5341;47.606;7.576;2023-03-16T03:30:13;99009.28;;;8.41;48.84
10587;BME280;5341;47.606;7.576;2023-03-16T03:32:41;99003.47;;;8.38;48.92
10587;BME280;5341;47.606;7.576;2023-03-16T03:35:10;99004.47;;;8.37;48.75
10587;BME280;5341;47.606;7.576;2023-03-16T03:37:38;99003.47;;;8.38;48.91
10587;BME280;5341;47.606;7.576;2023-03-16T03:40:07;99004.59;;;8.35;48.90
10587;BME280;5341;47.606;7.576;2023-03-16T03:42:37;99001.22;;;8.33;48.62
10587;BME280;5341;47.606;7.576;2023-03-16T03:45:05;99004.91;;;8.32;48.99
10587;BME280;5341;47.606;7.576;2023-03-16T03:47:34;98998.06;;;8.30;48.88
10587;BME280;5341;47.606;7.576;2023-03-16T03:50:04;98997.22;;;8.29;48.89
10587;BME280;5341;47.606;7.576;2023-03-16T03:52:38;98997.56;;;8.26;48.99
10587;BME280;5341;47.606;7.576;2023-03-16T03:55:06;98995.91;;;8.25;48.62
10587;BME280;5341;47.606;7.576;2023-03-16T03:57:34;98988.03;;;8.23;48.91
10587;BME280;5341;47.606;7.576;2023-03-16T04:00:01;98988.19;;;8.22;48.97
10587;BME280;5341;47.606;7.576;2023-03-16T04:02:40;98985.69;;;8.20;49.04
10587;BME280;5341;47.606;7.576;2023-03-16T04:05:16;98989.53;;;8.18;48.73
10587;BME280;5341;47.606;7.576;2023-03-16T04:07:45;98986.03;;;8.17;48.85
10587;BME280;5341;47.606;7.576;2023-03-16T04:10:13;98989.69;;;8.16;48.79
10587;BME280;5341;47.606;7.576;2023-03-16T04:12:43;98984.53;;;8.15;48.95
10587;BME280;5341;47.606;7.576;2023-03-16T04:15:13;98989.03;;;8.14;48.93
10587;BME280;5341;47.606;7.576;2023-03-16T04:18:05;98976.72;;;8.13;48.86
10587;BME280;5341;47.606;7.576;2023-03-16T04:20:32;98982.19;;;8.12;48.88
10587;BME280;5341;47.606;7.576;2023-03-16T04:23:00;98986.66;;;8.11;48.89
10587;BME280;5341;47.606;7.576;2023-03-16T04:25:30;98980.66;;;8.09;48.90
10587;BME280;5341;47.606;7.576;2023-03-16T04:27:58;98990.50;;;8.09;49.06
10587;BME280;5341;47.606;7.576;2023-03-16T04:30:28;98985.31;;;8.07;49.17
10587;BME280;5341;47.606;7.576;2023-03-16T04:33:06;98992.66;;;8.05;49.09
10587;BME280;5341;47.606;7.576;2023-03-16T04:35:33;98982.81;;;8.06;48.96
10587;BME280;5341;47.606;7.576;2023-03-16T04:38:01;98983.00;;;8.04;49.18
10587;BME280;5341;47.606;7.576;2023-03-16T04:40:38;98984.97;;;8.02;48.80
10587;BME280;5341;47.606;7.576;2023-03-16T04:43:13;98984.16;;;8.02;48.95
10587;BME280;5341;47.606;7.576;2023-03-16T04:45:41;98987.81;;;8.01;49.00
10587;BME280;5341;47.606;7.576;2023-03-16T04:48:10;98988.81;;;8.00;49.12
10587;BME280;5341;47.606;7.576;2023-03-16T04:50:38;98972.13;;;7.98;48.92
10587;BME280;5341;47.606;7.576;2023-03-16T04:53:06;98981.94;;;7.97;49.14
10587;BME280;5341;47.606;7.576;2023-03-16T04:55:33;98983.94;;;7.95;48.99
10587;BME280;5341;47.606;7.576;2023-03-16T04:58:01;98977.78;;;7.94;49.00
10587;BME280;5341;47.606;7.576;2023-03-16T05:00:35;98986.78;;;7.93;49.02
10587;BME280;5341;47.606;7.576;2023-03-16T05:03:12;98984.28;;;7.92;49.29
10587;BME280;5341;47.606;7.576;2023-03-16T05:05:40;98975.63;;;7.90;49.13
10587;BME280;5341;47.606;7.576;2023-03-16T05:08:08;98973.94;;;7.89;49.09
10587;BME280;5341;47.606;7.576;2023-03-16T05:10:39;98971.44;;;7.87;49.06
10587;BME280;5341;47.606;7.576;2023-03-16T05:13:06;98971.44;;;7.87;49.03
10587;BME280;5341;47.606;7.576;2023-03-16T05:15:34;98969.75;;;7.86;49.32
10587;BME280;5341;47.606;7.576;2023-03-16T05:18:16;98968.09;;;7.85;49.27
10587;BME280;5341;47.606;7.576;2023-03-16T05:20:43;98973.56;;;7.84;48.98
10587;BME280;5341;47.606;7.576;2023-03-16T05:23:15;98974.56;;;7.83;49.01
10587;BME280;5341;47.606;7.576;2023-03-16T05:25:50;98967.59;;;7.82;49.27
10587;BME280;5341;47.606;7.576;2023-03-16T05:28:19;98971.25;;;7.81;49.06
10587;BME280;5341;47.606;7.576;2023-03-16T05:30:54;98975.91;;;7.79;49.16
10587;BME280;5341;47.606;7.576;2023-03-16T05:33:26;98975.91;;;7.79;49.09
10587;BME280;5341;47.606;7.576;2023-03-16T05:36:01;98975.22;;;7.77;49.04
10587;BME280;5341;47.606;7.576;2023-03-16T05:38:29;98977.06;;;7.76;49.09
10587;BME280;5341;47.606;7.576;2023-03-16T05:40:58;98977.34;;;7.73;49.13
10587;BME280;5341;47.606;7.576;2023-03-16T05:43:56;98973.84;;;7.73;49.07
10587;BME280;5341;47.606;7.576;2023-03-16T05:46:27;98978.34;;;7.72;49.28
10587;BME280;5341;47.606;7.576;2023-03-16T05:48:56;98975.00;;;7.70;48.98
10587;BME280;5341;47.606;7.576;2023-03-16T05:51:23;98979.50;;;7.70;48.99
10587;BME280;5341;47.606;7.576;2023-03-16T05:53:53;98982.31;;;7.68;49.06
10587;BME280;5341;47.606;7.576;2023-03-16T05:56:30;98980.66;;;7.67;49.24
10587;BME280;5341;47.606;7.576;2023-03-16T05:59:05;98979.00;;;7.66;49.04
10587;BME280;5341;47.606;7.576;2023-03-16T06:01:40;98980.97;;;7.64;49.18
10587;BME280;5341;47.606;7.576;2023-03-16T06:04:12;98982.81;;;7.63;49.26
10587;BME280;5341;47.606;7.576;2023-03-16T06:06:40;98975.78;;;7.62;49.42
10587;BME280;5341;47.606;7.576;2023-03-16T06:09:28;98977.63;;;7.62;49.27
10587;BME280;5341;47.606;7.576;2023-03-16T06:12:00;98978.44;;;7.62;49.41
10587;BME280;5341;47.606;7.576;2023-03-16T06:14:31;98980.44;;;7.60;49.07
10587;BME280;5341;47.606;7.576;2023-03-16T06:17:00;98978.63;;;7.61;49.32
10587;BME280;5341;47.606;7.576;2023-03-16T06:19:29;98973.44;;;7.59;49.51
10587;BME280;5341;47.606;7.576;2023-03-16T06:21:59;98984.94;;;7.60;49.26
10587;BME280;5341;47.606;7.576;2023-03-16T06:24:27;98981.44;;;7.59;49.44
10587;BME280;5341;47.606;7.576;2023-03-16T06:26:55;98985.94;;;7.59;49.26
10587;BME280;5341;47.606;7.576;2023-03-16T06:29:28;98987.75;;;7.58;49.46
10587;BME280;5341;47.606;7.576;2023-03-16T06:31:59;98981.44;;;7.59;49.46
10587;BME280;5341;47.606;7.576;2023-03-16T06:34:29;98978.78;;;7.59;49.45
10587;BME280;5341;47.606;7.576;2023-03-16T06:36:56;98989.25;;;7.61;49.26
10587;BME280;5341;47.606;7.576;2023-03-16T06:39:24;98975.13;;;7.60;49.35
10587;BME280;5341;47.606;7.576;2023-03-16T06:41:51;98975.78;;;7.62;49.62
10587;BME280;5341;47.606;7.576;2023-03-16T06:44:19;98973.97;;;7.63;49.73
10587;BME280;5341;47.606;7.576;2023-03-16T06:47:13;98974.66;;;7.65;49.77
10587;BME280;5341;47.606;7.576;2023-03-16T06:49:42;98970.00;;;7.67;49.64
10587;BME280;5341;47.606;7.576;2023-03-16T06:52:19;98968.19;;;7.68;49.50
10587;BME280;5341;47.606;7.576;2023-03-16T06:54:46;98962.69;;;7.69;49.54
10587;BME280;5341;47.606;7.576;2023-03-16T06:57:17;98958.03;;;7.71;49.75
10587;BME280;5341;47.606;7.576;2023-03-16T06:59:45;98951.72;;;7.72;49.56
10587;BME280;5341;47.606;7.576;2023-03-16T07:02:13;98958.56;;;7.75;50.06
10587;BME280;5341;47.606;7.576;2023-03-16T07:04:44;98948.44;;;7.78;49.81
10587;BME280;5341;47.606;7.576;2023-03-16T07:07:12;98926.97;;;7.80;49.85
10587;BME280;5341;47.606;7.576;2023-03-16T07:09:40;98931.97;;;7.83;49.74
10587;BME280;5341;47.606;7.576;2023-03-16T07:12:09;98937.81;;;7.86;49.72
10587;BME280;5341;47.606;7.576;2023-03-16T07:14:39;98940.00;;;7.91;50.02
10587;BME280;5341;47.606;7.576;2023-03-16T07:17:11;98927.34;;;7.93;50.03
10587;BME280;5341;47.606;7.576;2023-03-16T07:19:39;98926.88;;;7.98;49.96
10587;BME280;5341;47.606;7.576;2023-03-16T07:22:08;98919.25;;;8.03;49.96
10587;BME280;5341;47.606;7.576;2023-03-16T07:24:38;98904.59;;;8.07;50.03
10587;BME280;5341;47.606;7.576;2023-03-16T07:27:06;98896.09;;;8.11;50.16
10587;BME280;5341;47.606;7.576;2023-03-16T07:29:34;98889.63;;;8.14;50.17
10587;BME280;5341;47.606;7.576;2023-03-16T07:32:04;98892.81;;;8.17;50.03
10587;BME280;5341;47.606;7.576;2023-03-16T07:34:36;98896.78;;;8.21;50.16
10587;BME280;5341;47.606;7.576;2023-03-16T07:37:04;98895.50;;;8.26;50.32
10587;BME280;5341;47.606;7.576;2023-03-16T07:39:34;98897.81;;;8.29;49.98
10587;BME280;5341;47.606;7.576;2023-03-16T07:42:12;98907.31;;;8.31;49.76
10587;BME280;5341;47.606;7.576;2023-03-16T07:44:53;98917.50;;;8.36;49.86
10587;BME280;5341;47.606;7.576;2023-03-16T07:47:21;98915.19;;;8.41;49.75
10587;BME280;5341;47.606;7.576;2023-03-16T07:49:50;98928.00;;;8.45;49.73
10587;BME280;5341;47.606;7.576;2023-03-16T07:52:17;98928.38;;;8.50;49.91
10587;BME280;5341;47.606;7.576;2023-03-16T07:54:47;98925.19;;;8.55;49.62
10587;BME280;5341;47.606;7.576;2023-03-16T07:57:14;98936.34;;;8.59;49.34
10587;BME280;5341;47.606;7.576;2023-03-16T07:59:42;98942.88;;;8.64;49.25
10587;BME280;5341;47.606;7.576;2023-03-16T08:02:18;98949.53;;;8.68;49.44
10587;BME280;5341;47.606;7.576;2023-03-16T08:04:47;98944.69;;;8.72;49.32
10587;BME280;5341;47.606;7.576;2023-03-16T08:07:14;98937.03;;;8.77;48.78
10587;BME280;5341;47.606;7.576;2023-03-16T08:10:10;98921.53;;;8.80;49.07
10587;BME280;5341;47.606;7.576;2023-03-16T08:12:52;98920.34;;;8.83;48.74
10587;BME280;5341;47.606;7.576;2023-03-16T08:15:20;98916.38;;;8.87;48.86
10587;BME280;5341;47.606;7.576;2023-03-16T08:17:50;98913.03;;;8.93;48.80
10587;BME280;5341;47.606;7.576;2023-03-16T08:20:23;98909.03;;;8.97;48.27
10587;BME280;5341;47.606;7.576;2023-03-16T08:22:52;98904.69;;;9.04;48.41
10587;BME280;5341;47.606;7.576;2023-03-16T08:25:25;98906.50;;;9.12;48.37
10587;BME280;5341;47.606;7.576;2023-03-16T08:28:02;98906.34;;;9.22;48.24
10587;BME280;5341;47.606;7.576;2023-03-16T08:30:31;98910.16;;;9.27;48.37
10587;BME280;5341;47.606;7.576;2023-03-16T08:33:18;98902.44;;;9.32;48.09
10587;BME280;5341;47.606;7.576;2023-03-16T08:35:46;98893.94;;;9.37;48.12
10587;BME280;5341;47.606;7.576;2023-03-16T08:38:14;98898.59;;;9.43;47.78
10587;BME280;5341;47.606;7.576;2023-03-16T08:40:44;98898.94;;;9.48;47.51
10587;BME280;5341;47.606;7.576;2023-03-16T08:43:14;98910.75;;;9.54;47.51
10587;BME280;5341;47.606;7.576;2023-03-16T08:45:43;98912.91;;;9.58;47.22
10587;BME280;5341;47.606;7.576;2023-03-16T08:48:11;98907.53;;;9.66;47.20
10587;BME280;5341;47.606;7.576;2023-03-16T08:50:43;98911.00;;;9.75;47.16
10587;BME280;5341;47.606;7.576;2023-03-16T08:53:12;98924.34;;;9.83;46.92
10587;BME280;5341;47.606;7.576;2023-03-16T08:55:40;98918.09;;;9.91;46.57
10587;BME280;5341;47.606;7.576;2023-03-16T08:58:10;98903.72;;;10.00;46.93
10587;BME280;5341;47.606;7.576;2023-03-16T09:00:38;98889.94;;;10.11;46.11
10587;BME280;5341;47.606;7.576;2023-03-16T09:03:06;98891.44;;;10.22;46.42
10587;BME280;5341;47.606;7.576;2023-03-16T09:05:35;98894.22;;;10.28;46.36
10587;BME280;5341;47.606;7.576;2023-03-16T09:08:03;98896.38;;;10.33;45.73
10587;BME280;5341;47.606;7.576;2023-03-16T09:10:30;98894.16;;;10.37;46.17
10587;BME280;5341;47.606;7.576;2023-03-16T09:12:58;98891.31;;;10.38;45.62
10587;BME280;5341;47.606;7.576;2023-03-16T09:15:27;98883.78;;;10.42;45.48
10587;BME280;5341;47.606;7.576;2023-03-16T09:17:55;98880.56;;;10.46;44.99
10587;BME280;5341;47.606;7.576;2023-03-16T09:20:25;98872.81;;;10.51;45.33
10587;BME280;5341;47.606;7.576;2023-03-16T09:22:53;98870.09;;;10.60;44.86
10587;BME280;5341;47.606;7.576;2023-03-16T09:25:21;98868.66;;;10.72;45.34
10587;BME280;5341;47.606;7.576;2023-03-16T09:27:48;98869.25;;;10.82;44.33
10587;BME280;5341;47.606;7.576;2023-03-16T09:30:16;98865.00;;;10.88;44.57
10587;BME280;5341;47.606;7.576;2023-03-16T09:32:45;98868.81;;;10.93;44.55
10587;BME280;5341;47.606;7.576;2023-03-16T09:35:13;98856.53;;;10.99;44.29
10587;BME280;5341;47.606;7.576;2023-03-16T09:37:41;98859.97;;;11.07;44.23
10587;BME280;5341;47.606;7.576;2023-03-16T09:42:52;98850.09;;;11.23;44.04
10587;BME280;5341;47.606;7.576;2023-03-16T09:45:28;98848.16;;;11.31;43.87
10587;BME280;5341;47.606;7.576;2023-03-16T09:48:03;98841.53;;;11.42;43.46
10587;BME280;5341;47.606;7.576;2023-03-16T09:50:33;98840.56;;;11.50;43.66
10587;BME280;5341;47.606;7.576;2023-03-16T09:53:07;98835.31;;;11.56;43.73
10587;BME280;5341;47.606;7.576;2023-03-16T09:55:37;98831.25;;;11.60;43.49
10587;BME280;5341;47.606;7.576;2023-03-16T09:58:12;98832.16;;;11.67;42.99
10587;BME280;5341;47.606;7.576;2023-03-16T10:00:52;98829.94;;;11.71;42.83
10587;BME280;5341;47.606;7.576;2023-03-16T10:03:37;98833.91;;;11.75;43.04
10587;BME280;5341;47.606;7.576;2023-03-16T10:06:13;98825.50;;;11.78;42.74
10587;BME280;5341;47.606;7.576;2023-03-16T10:08:43;98830.31;;;11.83;42.58
10587;BME280;5341;47.606;7.576;2023-03-16T10:11:24;98822.06;;;11.84;42.32
10587;BME280;5341;47.606;7.576;2023-03-16T10:13:55;98833.28;;;11.88;42.71
10587;BME280;5341;47.606;7.576;2023-03-16T10:16:31;98830.84;;;11.93;42.36
10587;BME280;5341;47.606;7.576;2023-03-16T10:19:08;98827.59;;;11.97;41.83
10587;BME280;5341;47.606;7.576;2023-03-16T10:21:39;98827.03;;;12.02;42.17
10587;BME280;5341;47.606;7.576;2023-03-16T10:24:18;98817.00;;;12.11;42.14
10587;BME280;5341;47.606;7.576;2023-03-16T10:26:54;98819.38;;;12.20;41.86
10587;BME280;5341;47.606;7.576;2023-03-16T10:29:25;98811.00;;;12.30;42.25
10587;BME280;5341;47.606;7.576;2023-03-16T10:31:54;98821.84;;;12.43;41.76
10587;BME280;5341;47.606;7.576;2023-03-16T10:34:27;98811.84;;;12.52;42.08
10587;BME280;5341;47.606;7.576;2023-03-16T10:36:55;98812.91;;;12.57;41.86
10587;BME280;5341;47.606;7.576;2023-03-16T10:39:22;98817.75;;;12.69;41.84
10587;BME280;5341;47.606;7.576;2023-03-16T10:41:55;98815.75;;;12.77;41.02
10587;BME280;5341;47.606;7.576;2023-03-16T10:44:24;98810.00;;;12.80;40.58
10587;BME280;5341;47.606;7.576;2023-03-16T10:46:58;98806.91;;;12.83;40.57
10587;BME280;5341;47.606;7.576;2023-03-16T10:49:34;98800.16;;;12.87;40.46
10587;BME280;5341;47.606;7.576;2023-03-16T10:52:11;98798.50;;;12.93;40.74
10587;BME280;5341;47.606;7.576;2023-03-16T10:54:47;98800.03;;;13.02;40.69
10587;BME280;5341;47.606;7.576;2023-03-16T10:57:25;98799.47;;;13.13;40.16
10587;BME280;5341;47.606;7.576;2023-03-16T10:59:54;98813.81;;;13.21;40.14
10587;BME280;5341;47.606;7.576;2023-03-16T11:02:30;98811.78;;;13.29;40.03
10587;BME280;5341;47.606;7.576;2023-03-16T11:05:13;98808.53;;;13.40;40.16
10587;BME280;5341;47.606;7.576;2023-03-16T11:07:47;98811.06;;;13.48;40.07
10587;BME280;5341;47.606;7.576;2023-03-16T11:10:28;98802.44;;;13.60;39.86
10587;BME280;5341;47.606;7.576;2023-03-16T11:13:02;98804.31;;;13.66;39.60
10587;BME280;5341;47.606;7.576;2023-03-16T11:15:36;98792.78;;;13.72;39.58
10587;BME280;5341;47.606;7.576;2023-03-16T11:18:04;98799.81;;;13.79;39.56
10587;BME280;5341;47.606;7.576;2023-03-16T11:20:35;98792.59;;;13.87;39.23
10587;BME280;5341;47.606;7.576;2023-03-16T11:23:05;98799.03;;;13.99;39.14
10587;BME280;5341;47.606;7.576;2023-03-16T11:25:44;98787.47;;;14.05;39.01
10587;BME280;5341;47.606;7.576;2023-03-16T11:28:15;98782.53;;;14.15;39.13
10587;BME280;5341;47.606;7.576;2023-03-16T11:30:49;98780.69;;;14.22;39.18
10587;BME280;5341;47.606;7.576;2023-03-16T11:33:20;98790.44;;;14.30;38.56
10587;BME280;5341;47.606;7.576;2023-03-16T11:36:00;98775.72;;;14.32;38.38
10587;BME280;5341;47.606;7.576;2023-03-16T11:38:40;98777.19;;;14.35;38.34
10587;BME280;5341;47.606;7.576;2023-03-16T11:41:12;98778.00;;;14.42;38.34
10587;BME280;5341;47.606;7.576;2023-03-16T11:43:50;98763.53;;;14.50;38.30
10587;BME280;5341;47.606;7.576;2023-03-16T11:46:21;98779.09;;;14.54;37.90
10587;BME280;5341;47.606;7.576;2023-03-16T11:48:59;98773.50;;;14.56;37.17
10587;BME280;5341;47.606;7.576;2023-03-16T11:51:34;98775.34;;;14.55;37.16
10587;BME280;5341;47.606;7.576;2023-03-16T11:54:21;98769.97;;;14.62;37.44
10587;BME280;5341;47.606;7.576;2023-03-16T11:56:57;98763.75;;;14.68;37.69
10587;BME280;5341;47.606;7.576;2023-03-16T11:59:40;98759.38;;;14.74;37.37
10587;BME280;5341;47.606;7.576;2023-03-16T12:02:26;98751.09;;;14.82;37.32
10587;BME280;5341;47.606;7.576;2023-03-16T12:08:03;98746.50;;;14.89;36.63
10587;BME280;5341;47.606;7.576;2023-03-16T12:10:39;98749.84;;;14.91;36.33
10587;BME280;5341;47.606;7.576;2023-03-16T12:13:21;98751.28;;;14.93;36.33
10587;BME280;5341;47.606;7.576;2023-03-16T12:15:57;98754.38;;;14.97;36.76
10587;BME280;5341;47.606;7.576;2023-03-16T12:18:37;98748.34;;;15.02;36.70
10587;BME280;5341;47.606;7.576;2023-03-16T12:21:12;98732.63;;;15.05;36.72
10587;BME280;5341;47.606;7.576;2023-03-16T12:23:49;98723.28;;;15.08;36.76
10587;BME280;5341;47.606;7.576;2023-03-16T12:26:17;98722.84;;;15.11;36.54
10587;BME280;5341;47.606;7.576;2023-03-16T12:28:45;98720.75;;;15.13;36.40
10587;BME280;5341;47.606;7.576;2023-03-16T12:31:16;98724.09;;;15.15;36.46
10587;BME280;5341;47.606;7.576;2023-03-16T12:34:02;98719.94;;;15.19;36.52
10587;BME280;5341;47.606;7.576;2023-03-16T12:36:50;98708.94;;;15.20;36.87
10587;BME280;5341;47.606;7.576;2023-03-16T12:39:35;98708.94;;;15.27;37.35
10587;BME280;5341;47.606;7.576;2023-03-16T12:42:20;98706.78;;;15.36;36.95
10587;BME280;5341;47.606;7.576;2023-03-16T12:44:55;98708.22;;;15.45;36.59
10587;BME280;5341;47.606;7.576;2023-03-16T12:47:28;98700.09;;;15.51;36.35
10587;BME280;5341;47.606;7.576;2023-03-16T12:50:03;98704.41;;;15.59;36.49
10587;BME280;5341;47.606;7.576;2023-03-16T12:52:41;98706.06;;;15.67;36.14
10587;BME280;5341;47.606;7.576;2023-03-16T12:55:15;98703.75;;;15.70;35.62
10587;BME280;5341;47.606;7.576;2023-03-16T12:57:44;98700.00;;;15.71;35.34
10587;BME280;5341;47.606;7.576;2023-03-16T13:00:13;98699.56;;;15.74;35.27
10587;BME280;5341;47.606;7.576;2023-03-16T13:02:43;98693.53;;;15.79;35.07
10587;BME280;5341;47.606;7.576;2023-03-16T13:05:13;98692.66;;;15.85;34.95
10587;BME280;5341;47.606;7.576;2023-03-16T13:07:46;98692.41;;;15.93;35.07
10587;BME280;5341;47.606;7.576;2023-03-16T13:10:16;98679.91;;;15.99;35.02
10587;BME280;5341;47.606;7.576;2023-03-16T13:12:46;98682.78;;;16.04;35.35
10587;BME280;5341;47.606;7.576;2023-03-16T13:15:25;98673.19;;;16.08;35.06
10587;BME280;5341;47.606;7.576;2023-03-16T13:18:19;98676.31;;;16.11;35.42
10587;BME280;5341;47.606;7.576;2023-03-16T13:20:53;98674.44;;;16.12;35.41
10587;BME280;5341;47.606;7.576;2023-03-16T13:23:24;98673.16;;;16.15;35.33
10587;BME280;5341;47.606;7.576;2023-03-16T13:26:14;98671.06;;;16.17;34.71
10587;BME280;5341;47.606;7.576;2023-03-16T13:28:49;98664.63;;;16.18;34.51
10587;BME280;5341;47.606;7.576;2023-03-16T13:31:21;98664.63;;;16.18;34.17
10587;BME280;5341;47.606;7.576;2023-03-16T13:33:52;98667.09;;;16.19;34.50
10587;BME280;5341;47.606;7.576;2023-03-16T13:36:21;98655.84;;;16.22;34.91
10587;BME280;5341;47.606;7.576;2023-03-16T13:38:56;98658.72;;;16.27;34.62
10587;BME280;5341;47.606;7.576;2023-03-16T13:41:31;98652.66;;;16.32;34.67
10587;BME280;5341;47.606;7.576;2023-03-16T13:43:58;98653.22;;;16.40;34.67
10587;BME280;5341;47.606;7.576;2023-03-16T13:46:28;98653.97;;;16.48;34.38
10587;BME280;5341;47.606;7.576;2023-03-16T13:48:57;98655.78;;;16.54;34.49